sensor_id;sensor_type;location;lat;lon;timestamp;P1;durP1;ratioP1;P2;durP2;ratioP2
59052;SDS011;44843;44.728;10.396;2023-06-22T00:02:13;1983.20;;;825.78;;
59052;SDS011;44843;44.728;10.396;2023-06-22T00:04:39;1926.45;;;803.42;;
59052;SDS011;44843;44.728;10.396;2023-06-22T00:07:04;1868.18;;;781.00;;
59052;SDS011;44843;44.728;10.396;2023-06-22T00:09:30;1916.68;;;782.95;;
59052;SDS011;44843;44.728;10.396;2023-06-22T00:11:56;1997.97;;;847.28;;
59052;SDS011;44843;44.728;10.396;2023-06-22T00:14:22;1999.90;;;856.30;;
59052;SDS011;44843;44.728;10.396;2023-06-22T00:16:47;1999.90;;;869.72;;
59052;SDS011;44843;44.728;10.396;2023-06-22T00:19:14;1976.68;;;816.47;;
59052;SDS011;44843;44.728;10.396;2023-06-22T00:21:40;1999.90;;;861.50;;
59052;SDS011;44843;44.728;10.396;2023-06-22T00:24:06;1999.90;;;865.70;;
59052;SDS011;44843;44.728;10.396;2023-06-22T00:26:31;1999.90;;;862.40;;
59052;SDS011;44843;44.728;10.396;2023-06-22T00:28:57;1999.90;;;852.90;;
59052;SDS011;44843;44.728;10.396;2023-06-22T00:31:22;1999.90;;;862.60;;
59052;SDS011;44843;44.728;10.396;2023-06-22T00:33:47;1999.90;;;833.00;;
59052;SDS011;44843;44.728;10.396;2023-06-22T00:36:15;1999.90;;;836.70;;
59052;SDS011;44843;44.728;10.396;2023-06-22T00:38:41;1980.35;;;813.92;;
59052;SDS011;44843;44.728;10.396;2023-06-22T00:41:07;1958.20;;;804.13;;
59052;SDS011;44843;44.728;10.396;2023-06-22T00:43:32;1969.82;;;806.60;;
59052;SDS011;44843;44.728;10.396;2023-06-22T00:45:57;1963.18;;;811.30;;
59052;SDS011;44843;44.728;10.396;2023-06-22T00:48:23;1942.82;;;786.15;;
59052;SDS011;44843;44.728;10.396;2023-06-22T00:50:49;1938.22;;;789.45;;
59052;SDS011;44843;44.728;10.396;2023-06-22T00:53:16;1918.25;;;778.35;;
59052;SDS011;44843;44.728;10.396;2023-06-22T00:55:43;1864.07;;;770.58;;
59052;SDS011;44843;44.728;10.396;2023-06-22T00:58:11;1921.57;;;796.35;;
59052;SDS011;44843;44.728;10.396;2023-06-22T01:00:40;1929.50;;;815.20;;
59052;SDS011;44843;44.728;10.396;2023-06-22T01:03:06;1927.43;;;804.78;;
59052;SDS011;44843;44.728;10.396;2023-06-22T01:05:35;1908.50;;;805.58;;
59052;SDS011;44843;44.728;10.396;2023-06-22T01:10:57;1945.32;;;799.15;;
59052;SDS011;44843;44.728;10.396;2023-06-22T01:18:42;1945.40;;;802.63;;
59052;SDS011;44843;44.728;10.396;2023-06-22T01:21:16;1933.32;;;788.72;;
59052;SDS011;44843;44.728;10.396;2023-06-22T01:26:47;1897.70;;;758.05;;
59052;SDS011;44843;44.728;10.396;2023-06-22T01:29:20;1905.25;;;772.35;;
59052;SDS011;44843;44.728;10.396;2023-06-22T01:31:48;1894.57;;;766.35;;
59052;SDS011;44843;44.728;10.396;2023-06-22T01:34:15;1924.28;;;773.60;;
59052;SDS011;44843;44.728;10.396;2023-06-22T01:36:42;1909.40;;;765.08;;
59052;SDS011;44843;44.728;10.396;2023-06-22T01:39:08;1924.60;;;779.85;;
59052;SDS011;44843;44.728;10.396;2023-06-22T01:41:35;1908.47;;;763.72;;
59052;SDS011;44843;44.728;10.396;2023-06-22T01:44:05;1934.57;;;771.90;;
59052;SDS011;44843;44.728;10.396;2023-06-22T01:46:33;1946.00;;;777.00;;
59052;SDS011;44843;44.728;10.396;2023-06-22T01:49:03;1953.40;;;771.15;;
59052;SDS011;44843;44.728;10.396;2023-06-22T01:51:30;1950.25;;;782.13;;
59052;SDS011;44843;44.728;10.396;2023-06-22T01:53:55;1990.03;;;784.80;;
59052;SDS011;44843;44.728;10.396;2023-06-22T01:56:21;1981.10;;;787.95;;
59052;SDS011;44843;44.728;10.396;2023-06-22T01:58:51;1981.82;;;788.35;;
59052;SDS011;44843;44.728;10.396;2023-06-22T02:01:34;1995.13;;;791.78;;
59052;SDS011;44843;44.728;10.396;2023-06-22T02:04:06;1999.90;;;809.58;;
59052;SDS011;44843;44.728;10.396;2023-06-22T02:06:37;1999.90;;;824.43;;
59052;SDS011;44843;44.728;10.396;2023-06-22T02:09:11;1999.90;;;832.53;;
59052;SDS011;44843;44.728;10.396;2023-06-22T02:11:40;1999.90;;;835.72;;
59052;SDS011;44843;44.728;10.396;2023-06-22T02:14:07;1999.90;;;838.65;;
59052;SDS011;44843;44.728;10.396;2023-06-22T02:16:33;1999.90;;;865.90;;
59052;SDS011;44843;44.728;10.396;2023-06-22T02:19:01;1999.90;;;839.17;;
59052;SDS011;44843;44.728;10.396;2023-06-22T02:21:31;1999.90;;;835.22;;
59052;SDS011;44843;44.728;10.396;2023-06-22T02:23:57;1999.55;;;823.65;;
59052;SDS011;44843;44.728;10.396;2023-06-22T02:26:23;1999.90;;;865.38;;
59052;SDS011;44843;44.728;10.396;2023-06-22T02:28:50;1999.90;;;981.00;;
59052;SDS011;44843;44.728;10.396;2023-06-22T02:31:16;1999.90;;;829.97;;
59052;SDS011;44843;44.728;10.396;2023-06-22T02:33:41;1999.90;;;810.47;;
59052;SDS011;44843;44.728;10.396;2023-06-22T02:36:06;1999.90;;;799.50;;
59052;SDS011;44843;44.728;10.396;2023-06-22T02:38:34;1999.90;;;812.65;;
59052;SDS011;44843;44.728;10.396;2023-06-22T02:41:01;1999.90;;;795.10;;
59052;SDS011;44843;44.728;10.396;2023-06-22T02:43:27;1999.90;;;818.17;;
59052;SDS011;44843;44.728;10.396;2023-06-22T02:45:53;1918.88;;;741.35;;
59052;SDS011;44843;44.728;10.396;2023-06-22T02:48:18;1975.65;;;764.85;;
59052;SDS011;44843;44.728;10.396;2023-06-22T02:50:44;1955.03;;;754.00;;
59052;SDS011;44843;44.728;10.396;2023-06-22T02:53:09;1917.35;;;736.15;;
59052;SDS011;44843;44.728;10.396;2023-06-22T02:55:35;1806.18;;;696.97;;
59052;SDS011;44843;44.728;10.396;2023-06-22T02:58:00;1771.10;;;679.10;;
59052;SDS011;44843;44.728;10.396;2023-06-22T03:00:29;1786.60;;;685.80;;
59052;SDS011;44843;44.728;10.396;2023-06-22T03:02:56;1796.93;;;683.85;;
59052;SDS011;44843;44.728;10.396;2023-06-22T03:05:22;1710.32;;;671.95;;
59052;SDS011;44843;44.728;10.396;2023-06-22T03:07:47;1741.60;;;682.40;;
59052;SDS011;44843;44.728;10.396;2023-06-22T03:10:13;1844.15;;;725.25;;
59052;SDS011;44843;44.728;10.396;2023-06-22T03:12:40;1732.57;;;685.88;;
59052;SDS011;44843;44.728;10.396;2023-06-22T03:15:06;1836.95;;;718.08;;
59052;SDS011;44843;44.728;10.396;2023-06-22T03:17:36;1632.85;;;624.20;;
59052;SDS011;44843;44.728;10.396;2023-06-22T03:20:04;1693.50;;;660.15;;
59052;SDS011;44843;44.728;10.396;2023-06-22T03:22:39;1621.13;;;619.67;;
59052;SDS011;44843;44.728;10.396;2023-06-22T03:25:06;1614.93;;;657.58;;
59052;SDS011;44843;44.728;10.396;2023-06-22T03:27:38;1709.90;;;660.03;;
59052;SDS011;44843;44.728;10.396;2023-06-22T03:30:07;1590.28;;;623.00;;
59052;SDS011;44843;44.728;10.396;2023-06-22T03:32:34;1633.75;;;647.33;;
59052;SDS011;44843;44.728;10.396;2023-06-22T03:35:00;1671.88;;;666.92;;
59052;SDS011;44843;44.728;10.396;2023-06-22T03:37:25;1597.53;;;632.15;;
59052;SDS011;44843;44.728;10.396;2023-06-22T03:39:51;1714.30;;;688.60;;
59052;SDS011;44843;44.728;10.396;2023-06-22T03:42:17;1531.63;;;617.72;;
59052;SDS011;44843;44.728;10.396;2023-06-22T03:44:43;1671.38;;;684.72;;
59052;SDS011;44843;44.728;10.396;2023-06-22T03:47:08;1788.10;;;779.47;;
59052;SDS011;44843;44.728;10.396;2023-06-22T03:49:34;1682.65;;;724.85;;
59052;SDS011;44843;44.728;10.396;2023-06-22T03:52:00;1802.85;;;775.38;;
59052;SDS011;44843;44.728;10.396;2023-06-22T03:54:29;1709.57;;;750.25;;
59052;SDS011;44843;44.728;10.396;2023-06-22T03:56:56;1715.68;;;761.53;;
59052;SDS011;44843;44.728;10.396;2023-06-22T03:59:22;1644.72;;;772.47;;
59052;SDS011;44843;44.728;10.396;2023-06-22T04:01:48;1696.60;;;742.28;;
59052;SDS011;44843;44.728;10.396;2023-06-22T04:04:13;1758.72;;;792.95;;
59052;SDS011;44843;44.728;10.396;2023-06-22T04:06:39;1679.32;;;708.00;;
59052;SDS011;44843;44.728;10.396;2023-06-22T04:09:05;1561.80;;;678.45;;
59052;SDS011;44843;44.728;10.396;2023-06-22T04:11:31;1755.22;;;758.90;;
59052;SDS011;44843;44.728;10.396;2023-06-22T04:13:56;1724.50;;;771.08;;
59052;SDS011;44843;44.728;10.396;2023-06-22T04:16:21;1836.93;;;813.38;;
59052;SDS011;44843;44.728;10.396;2023-06-22T04:18:47;1776.28;;;764.90;;
59052;SDS011;44843;44.728;10.396;2023-06-22T04:21:12;870.33;;;337.35;;
59052;SDS011;44843;44.728;10.396;2023-06-22T04:23:38;910.67;;;350.52;;
59052;SDS011;44843;44.728;10.396;2023-06-22T04:26:03;926.03;;;355.67;;
59052;SDS011;44843;44.728;10.396;2023-06-22T04:28:29;950.53;;;362.90;;
59052;SDS011;44843;44.728;10.396;2023-06-22T04:30:55;969.83;;;370.50;;
59052;SDS011;44843;44.728;10.396;2023-06-22T04:33:23;958.42;;;365.45;;
59052;SDS011;44843;44.728;10.396;2023-06-22T04:35:48;1005.40;;;379.92;;
59052;SDS011;44843;44.728;10.396;2023-06-22T04:38:14;1016.80;;;384.98;;
59052;SDS011;44843;44.728;10.396;2023-06-22T04:40:39;1044.55;;;395.52;;
59052;SDS011;44843;44.728;10.396;2023-06-22T04:43:05;1037.30;;;387.83;;
59052;SDS011;44843;44.728;10.396;2023-06-22T04:45:31;1054.43;;;395.90;;
59052;SDS011;44843;44.728;10.396;2023-06-22T04:47:57;1047.57;;;394.67;;
59052;SDS011;44843;44.728;10.396;2023-06-22T04:50:23;1039.18;;;390.02;;
59052;SDS011;44843;44.728;10.396;2023-06-22T04:52:49;1026.80;;;382.50;;
59052;SDS011;44843;44.728;10.396;2023-06-22T04:55:15;1049.30;;;392.73;;
59052;SDS011;44843;44.728;10.396;2023-06-22T04:57:45;1072.28;;;400.30;;
59052;SDS011;44843;44.728;10.396;2023-06-22T05:00:14;1071.85;;;399.60;;
59052;SDS011;44843;44.728;10.396;2023-06-22T05:02:45;1078.80;;;400.98;;
59052;SDS011;44843;44.728;10.396;2023-06-22T05:05:11;1087.18;;;402.98;;
59052;SDS011;44843;44.728;10.396;2023-06-22T05:07:44;1093.38;;;404.13;;
59052;SDS011;44843;44.728;10.396;2023-06-22T05:10:12;1102.07;;;408.33;;
59052;SDS011;44843;44.728;10.396;2023-06-22T05:12:38;1111.65;;;410.67;;
59052;SDS011;44843;44.728;10.396;2023-06-22T05:15:04;1105.68;;;406.20;;
59052;SDS011;44843;44.728;10.396;2023-06-22T05:17:34;1100.90;;;397.50;;
59052;SDS011;44843;44.728;10.396;2023-06-22T05:20:00;1117.03;;;406.88;;
59052;SDS011;44843;44.728;10.396;2023-06-22T05:22:26;1135.95;;;416.60;;
59052;SDS011;44843;44.728;10.396;2023-06-22T05:24:51;1139.63;;;417.23;;
59052;SDS011;44843;44.728;10.396;2023-06-22T05:27:16;1150.03;;;419.13;;
59052;SDS011;44843;44.728;10.396;2023-06-22T05:29:42;1135.95;;;412.98;;
59052;SDS011;44843;44.728;10.396;2023-06-22T05:32:07;1143.13;;;415.70;;
59052;SDS011;44843;44.728;10.396;2023-06-22T05:34:33;1150.53;;;418.30;;
59052;SDS011;44843;44.728;10.396;2023-06-22T05:36:58;1143.65;;;414.67;;
59052;SDS011;44843;44.728;10.396;2023-06-22T05:39:24;1159.80;;;423.10;;
59052;SDS011;44843;44.728;10.396;2023-06-22T05:41:50;1178.78;;;429.63;;
59052;SDS011;44843;44.728;10.396;2023-06-22T05:44:16;1181.57;;;430.08;;
59052;SDS011;44843;44.728;10.396;2023-06-22T05:46:43;1173.80;;;425.52;;
59052;SDS011;44843;44.728;10.396;2023-06-22T05:49:11;1178.43;;;425.77;;
59052;SDS011;44843;44.728;10.396;2023-06-22T05:51:40;1185.13;;;428.98;;
59052;SDS011;44843;44.728;10.396;2023-06-22T05:54:06;1172.03;;;426.98;;
59052;SDS011;44843;44.728;10.396;2023-06-22T05:56:33;1173.78;;;426.08;;
59052;SDS011;44843;44.728;10.396;2023-06-22T05:58:58;1169.10;;;424.48;;
59052;SDS011;44843;44.728;10.396;2023-06-22T06:01:23;1189.35;;;430.88;;
59052;SDS011;44843;44.728;10.396;2023-06-22T06:03:50;1183.38;;;427.48;;
59052;SDS011;44843;44.728;10.396;2023-06-22T06:06:17;1196.55;;;432.15;;
59052;SDS011;44843;44.728;10.396;2023-06-22T06:08:43;1195.45;;;431.38;;
59052;SDS011;44843;44.728;10.396;2023-06-22T06:11:08;1200.05;;;433.40;;
59052;SDS011;44843;44.728;10.396;2023-06-22T06:13:33;1202.13;;;433.95;;
59052;SDS011;44843;44.728;10.396;2023-06-22T06:15:59;1174.85;;;423.33;;
59052;SDS011;44843;44.728;10.396;2023-06-22T06:18:24;1187.43;;;426.55;;
59052;SDS011;44843;44.728;10.396;2023-06-22T06:20:50;1198.07;;;429.80;;
59052;SDS011;44843;44.728;10.396;2023-06-22T06:23:15;1192.03;;;427.35;;
59052;SDS011;44843;44.728;10.396;2023-06-22T06:25:40;1193.60;;;427.30;;
59052;SDS011;44843;44.728;10.396;2023-06-22T06:28:06;1199.80;;;430.95;;
59052;SDS011;44843;44.728;10.396;2023-06-22T06:30:31;1170.10;;;421.88;;
59052;SDS011;44843;44.728;10.396;2023-06-22T06:32:58;1129.70;;;408.40;;
59052;SDS011;44843;44.728;10.396;2023-06-22T06:35:24;1133.30;;;410.98;;
59052;SDS011;44843;44.728;10.396;2023-06-22T06:37:50;1127.72;;;406.95;;
59052;SDS011;44843;44.728;10.396;2023-06-22T06:40:16;1121.95;;;406.58;;
59052;SDS011;44843;44.728;10.396;2023-06-22T06:42:46;1150.25;;;415.95;;
59052;SDS011;44843;44.728;10.396;2023-06-22T06:45:15;1143.22;;;412.63;;
59052;SDS011;44843;44.728;10.396;2023-06-22T06:47:42;1136.95;;;412.52;;
59052;SDS011;44843;44.728;10.396;2023-06-22T06:50:07;1148.07;;;416.42;;
59052;SDS011;44843;44.728;10.396;2023-06-22T06:52:33;1141.20;;;412.73;;
59052;SDS011;44843;44.728;10.396;2023-06-22T06:54:59;1142.97;;;414.02;;
59052;SDS011;44843;44.728;10.396;2023-06-22T06:57:24;1119.15;;;406.15;;
59052;SDS011;44843;44.728;10.396;2023-06-22T06:59:54;1126.50;;;408.33;;
59052;SDS011;44843;44.728;10.396;2023-06-22T07:02:20;1124.60;;;408.42;;
59052;SDS011;44843;44.728;10.396;2023-06-22T07:04:46;1128.20;;;408.75;;
59052;SDS011;44843;44.728;10.396;2023-06-22T07:07:11;1129.35;;;412.30;;
59052;SDS011;44843;44.728;10.396;2023-06-22T07:09:37;1143.18;;;417.08;;
59052;SDS011;44843;44.728;10.396;2023-06-22T07:12:02;1159.00;;;419.40;;
59052;SDS011;44843;44.728;10.396;2023-06-22T07:14:28;1154.18;;;420.10;;
59052;SDS011;44843;44.728;10.396;2023-06-22T07:16:53;1149.25;;;419.60;;
59052;SDS011;44843;44.728;10.396;2023-06-22T07:19:24;1151.82;;;423.02;;
59052;SDS011;44843;44.728;10.396;2023-06-22T07:21:53;1161.30;;;425.10;;
59052;SDS011;44843;44.728;10.396;2023-06-22T07:24:22;1175.97;;;430.00;;
59052;SDS011;44843;44.728;10.396;2023-06-22T07:26:48;1155.68;;;423.70;;
59052;SDS011;44843;44.728;10.396;2023-06-22T07:29:15;1144.38;;;421.27;;
59052;SDS011;44843;44.728;10.396;2023-06-22T07:31:43;1201.78;;;436.77;;
59052;SDS011;44843;44.728;10.396;2023-06-22T07:34:09;1186.43;;;433.27;;
59052;SDS011;44843;44.728;10.396;2023-06-22T07:36:35;1176.20;;;432.63;;
59052;SDS011;44843;44.728;10.396;2023-06-22T07:39:01;1167.88;;;431.30;;
59052;SDS011;44843;44.728;10.396;2023-06-22T07:41:28;1188.72;;;436.50;;
59052;SDS011;44843;44.728;10.396;2023-06-22T07:43:54;1206.05;;;440.73;;
59052;SDS011;44843;44.728;10.396;2023-06-22T07:46:19;1163.00;;;429.40;;
59052;SDS011;44843;44.728;10.396;2023-06-22T07:48:45;1171.57;;;431.85;;
59052;SDS011;44843;44.728;10.396;2023-06-22T07:51:10;1169.38;;;430.40;;
59052;SDS011;44843;44.728;10.396;2023-06-22T07:53:37;1188.88;;;436.02;;
59052;SDS011;44843;44.728;10.396;2023-06-22T07:56:05;1189.90;;;436.30;;
59052;SDS011;44843;44.728;10.396;2023-06-22T07:58:32;1188.72;;;432.13;;
59052;SDS011;44843;44.728;10.396;2023-06-22T08:00:58;1193.65;;;436.90;;
59052;SDS011;44843;44.728;10.396;2023-06-22T08:03:23;1197.22;;;435.95;;
59052;SDS011;44843;44.728;10.396;2023-06-22T08:05:48;1182.90;;;426.15;;
59052;SDS011;44843;44.728;10.396;2023-06-22T08:08:14;1186.05;;;435.00;;
59052;SDS011;44843;44.728;10.396;2023-06-22T08:10:40;1174.32;;;434.42;;
59052;SDS011;44843;44.728;10.396;2023-06-22T08:13:06;1185.95;;;439.80;;
59052;SDS011;44843;44.728;10.396;2023-06-22T08:15:31;1175.55;;;433.85;;
59052;SDS011;44843;44.728;10.396;2023-06-22T08:17:57;1183.00;;;435.25;;
59052;SDS011;44843;44.728;10.396;2023-06-22T08:20:23;1203.13;;;452.98;;
59052;SDS011;44843;44.728;10.396;2023-06-22T08:22:48;1118.63;;;415.90;;
59052;SDS011;44843;44.728;10.396;2023-06-22T08:25:13;1121.68;;;413.38;;
59052;SDS011;44843;44.728;10.396;2023-06-22T08:27:39;1111.50;;;410.95;;
59052;SDS011;44843;44.728;10.396;2023-06-22T08:30:05;1113.80;;;413.48;;
59052;SDS011;44843;44.728;10.396;2023-06-22T08:32:32;1101.95;;;409.02;;
59052;SDS011;44843;44.728;10.396;2023-06-22T08:34:57;1132.10;;;420.35;;
59052;SDS011;44843;44.728;10.396;2023-06-22T08:37:23;1109.03;;;411.02;;
59052;SDS011;44843;44.728;10.396;2023-06-22T08:39:55;1103.80;;;406.75;;
59052;SDS011;44843;44.728;10.396;2023-06-22T08:42:21;1114.10;;;410.67;;
59052;SDS011;44843;44.728;10.396;2023-06-22T08:44:46;1120.22;;;411.50;;
59052;SDS011;44843;44.728;10.396;2023-06-22T08:47:11;1114.07;;;409.77;;
59052;SDS011;44843;44.728;10.396;2023-06-22T08:49:37;1063.43;;;397.38;;
59052;SDS011;44843;44.728;10.396;2023-06-22T08:52:02;1100.32;;;409.17;;
59052;SDS011;44843;44.728;10.396;2023-06-22T08:54:27;1131.00;;;416.67;;
59052;SDS011;44843;44.728;10.396;2023-06-22T08:56:53;1120.43;;;414.05;;
59052;SDS011;44843;44.728;10.396;2023-06-22T08:59:18;1142.60;;;420.40;;
59052;SDS011;44843;44.728;10.396;2023-06-22T09:01:44;1089.70;;;403.77;;
59052;SDS011;44843;44.728;10.396;2023-06-22T09:04:10;1104.53;;;408.23;;
59052;SDS011;44843;44.728;10.396;2023-06-22T09:06:36;1130.65;;;416.80;;
59052;SDS011;44843;44.728;10.396;2023-06-22T09:09:06;1150.40;;;421.77;;
59052;SDS011;44843;44.728;10.396;2023-06-22T09:11:31;1130.38;;;414.73;;
59052;SDS011;44843;44.728;10.396;2023-06-22T09:13:57;1122.22;;;414.85;;
59052;SDS011;44843;44.728;10.396;2023-06-22T09:16:22;1058.90;;;391.52;;
59052;SDS011;44843;44.728;10.396;2023-06-22T09:18:48;1126.63;;;418.23;;
59052;SDS011;44843;44.728;10.396;2023-06-22T09:21:13;1115.22;;;413.73;;
59052;SDS011;44843;44.728;10.396;2023-06-22T09:23:39;1026.65;;;383.75;;
59052;SDS011;44843;44.728;10.396;2023-06-22T09:26:04;1029.72;;;386.75;;
59052;SDS011;44843;44.728;10.396;2023-06-22T09:28:30;1031.57;;;387.13;;
59052;SDS011;44843;44.728;10.396;2023-06-22T09:30:56;1022.60;;;387.83;;
59052;SDS011;44843;44.728;10.396;2023-06-22T09:33:24;1007.67;;;377.73;;
59052;SDS011;44843;44.728;10.396;2023-06-22T09:35:50;1047.10;;;391.05;;
59052;SDS011;44843;44.728;10.396;2023-06-22T09:38:16;1085.72;;;403.83;;
59052;SDS011;44843;44.728;10.396;2023-06-22T09:40:41;1052.10;;;392.02;;
59052;SDS011;44843;44.728;10.396;2023-06-22T09:43:07;1063.95;;;396.38;;
59052;SDS011;44843;44.728;10.396;2023-06-22T09:45:32;1030.00;;;384.75;;
59052;SDS011;44843;44.728;10.396;2023-06-22T09:47:58;1054.80;;;391.83;;
59052;SDS011;44843;44.728;10.396;2023-06-22T09:50:23;1016.15;;;379.95;;
59052;SDS011;44843;44.728;10.396;2023-06-22T09:52:49;1030.35;;;383.98;;
59052;SDS011;44843;44.728;10.396;2023-06-22T09:55:19;1019.97;;;380.52;;
59052;SDS011;44843;44.728;10.396;2023-06-22T09:57:45;1041.53;;;389.85;;
59052;SDS011;44843;44.728;10.396;2023-06-22T10:00:10;1021.53;;;388.30;;
59052;SDS011;44843;44.728;10.396;2023-06-22T10:02:38;1035.93;;;387.48;;
59052;SDS011;44843;44.728;10.396;2023-06-22T10:05:04;1056.00;;;391.75;;
59052;SDS011;44843;44.728;10.396;2023-06-22T10:07:30;1027.97;;;385.67;;
59052;SDS011;44843;44.728;10.396;2023-06-22T10:09:55;1066.22;;;397.17;;
59052;SDS011;44843;44.728;10.396;2023-06-22T10:12:20;1048.20;;;389.92;;
59052;SDS011;44843;44.728;10.396;2023-06-22T10:14:46;1027.20;;;388.42;;
59052;SDS011;44843;44.728;10.396;2023-06-22T10:17:11;1062.32;;;396.98;;
59052;SDS011;44843;44.728;10.396;2023-06-22T10:19:37;1033.70;;;386.80;;
59052;SDS011;44843;44.728;10.396;2023-06-22T10:22:04;1031.93;;;396.23;;
59052;SDS011;44843;44.728;10.396;2023-06-22T10:24:30;1053.38;;;391.58;;
59052;SDS011;44843;44.728;10.396;2023-06-22T10:26:55;1049.97;;;392.85;;
59052;SDS011;44843;44.728;10.396;2023-06-22T10:29:21;1020.33;;;395.20;;
59052;SDS011;44843;44.728;10.396;2023-06-22T10:31:46;1039.32;;;390.98;;
59052;SDS011;44843;44.728;10.396;2023-06-22T10:34:11;1043.90;;;392.60;;
59052;SDS011;44843;44.728;10.396;2023-06-22T10:36:37;1066.95;;;397.20;;
59052;SDS011;44843;44.728;10.396;2023-06-22T10:39:02;1078.05;;;402.77;;
59052;SDS011;44843;44.728;10.396;2023-06-22T10:41:28;1065.05;;;409.73;;
59052;SDS011;44843;44.728;10.396;2023-06-22T10:43:55;1047.13;;;406.52;;
59052;SDS011;44843;44.728;10.396;2023-06-22T10:46:20;1058.20;;;401.35;;
59052;SDS011;44843;44.728;10.396;2023-06-22T10:48:46;1081.80;;;405.20;;
59052;SDS011;44843;44.728;10.396;2023-06-22T10:51:11;1077.75;;;407.00;;
59052;SDS011;44843;44.728;10.396;2023-06-22T10:53:36;1050.35;;;405.45;;
59052;SDS011;44843;44.728;10.396;2023-06-22T10:56:02;1049.78;;;405.58;;
59052;SDS011;44843;44.728;10.396;2023-06-22T10:58:27;1044.32;;;400.90;;
59052;SDS011;44843;44.728;10.396;2023-06-22T11:00:53;1046.78;;;403.98;;
59052;SDS011;44843;44.728;10.396;2023-06-22T11:03:18;1050.43;;;406.10;;
59052;SDS011;44843;44.728;10.396;2023-06-22T11:05:43;1037.72;;;403.73;;
59052;SDS011;44843;44.728;10.396;2023-06-22T11:08:09;1046.90;;;404.15;;
59052;SDS011;44843;44.728;10.396;2023-06-22T11:10:34;1033.70;;;406.27;;
59052;SDS011;44843;44.728;10.396;2023-06-22T11:12:59;1018.78;;;402.15;;
59052;SDS011;44843;44.728;10.396;2023-06-22T11:15:25;1049.43;;;410.65;;
59052;SDS011;44843;44.728;10.396;2023-06-22T11:17:50;1003.85;;;392.23;;
59052;SDS011;44843;44.728;10.396;2023-06-22T11:20:16;1040.95;;;402.70;;
59052;SDS011;44843;44.728;10.396;2023-06-22T11:22:41;1050.78;;;408.85;;
59052;SDS011;44843;44.728;10.396;2023-06-22T11:25:07;1031.72;;;406.83;;
59052;SDS011;44843;44.728;10.396;2023-06-22T11:27:33;1039.05;;;408.83;;
59052;SDS011;44843;44.728;10.396;2023-06-22T11:29:58;1046.80;;;407.52;;
59052;SDS011;44843;44.728;10.396;2023-06-22T11:32:24;1048.03;;;408.48;;
59052;SDS011;44843;44.728;10.396;2023-06-22T11:34:49;1038.82;;;402.27;;
59052;SDS011;44843;44.728;10.396;2023-06-22T11:37:15;1057.97;;;407.20;;
59052;SDS011;44843;44.728;10.396;2023-06-22T11:39:41;1049.30;;;408.60;;
59052;SDS011;44843;44.728;10.396;2023-06-22T11:42:07;1039.45;;;411.42;;
59052;SDS011;44843;44.728;10.396;2023-06-22T11:44:34;1029.40;;;408.90;;
59052;SDS011;44843;44.728;10.396;2023-06-22T11:46:59;1027.88;;;408.20;;
59052;SDS011;44843;44.728;10.396;2023-06-22T11:49:26;1016.80;;;398.48;;
59052;SDS011;44843;44.728;10.396;2023-06-22T11:51:54;1024.60;;;402.00;;
59052;SDS011;44843;44.728;10.396;2023-06-22T11:54:20;1063.15;;;405.27;;
59052;SDS011;44843;44.728;10.396;2023-06-22T11:56:45;1048.72;;;415.08;;
59052;SDS011;44843;44.728;10.396;2023-06-22T11:59:10;1053.80;;;412.25;;
59052;SDS011;44843;44.728;10.396;2023-06-22T12:01:36;1062.63;;;416.70;;
59052;SDS011;44843;44.728;10.396;2023-06-22T12:04:02;1053.63;;;422.27;;
59052;SDS011;44843;44.728;10.396;2023-06-22T12:06:30;1042.13;;;417.80;;
59052;SDS011;44843;44.728;10.396;2023-06-22T12:08:56;1030.85;;;411.42;;
59052;SDS011;44843;44.728;10.396;2023-06-22T12:11:22;1017.92;;;400.23;;
59052;SDS011;44843;44.728;10.396;2023-06-22T12:13:47;1037.47;;;417.65;;
59052;SDS011;44843;44.728;10.396;2023-06-22T12:16:12;1065.50;;;436.65;;
59052;SDS011;44843;44.728;10.396;2023-06-22T12:18:38;1043.93;;;423.20;;
59052;SDS011;44843;44.728;10.396;2023-06-22T12:21:03;1038.07;;;423.13;;
59052;SDS011;44843;44.728;10.396;2023-06-22T12:23:29;1056.03;;;426.08;;
59052;SDS011;44843;44.728;10.396;2023-06-22T12:25:54;1062.55;;;422.17;;
59052;SDS011;44843;44.728;10.396;2023-06-22T12:28:19;1073.63;;;433.30;;
59052;SDS011;44843;44.728;10.396;2023-06-22T12:30:45;1103.97;;;433.75;;
59052;SDS011;44843;44.728;10.396;2023-06-22T12:33:10;1137.18;;;435.58;;
59052;SDS011;44843;44.728;10.396;2023-06-22T12:35:36;1127.47;;;430.65;;
59052;SDS011;44843;44.728;10.396;2023-06-22T12:38:01;1125.03;;;431.58;;
59052;SDS011;44843;44.728;10.396;2023-06-22T12:40:28;1108.82;;;422.52;;
59052;SDS011;44843;44.728;10.396;2023-06-22T12:42:53;1110.68;;;425.67;;
59052;SDS011;44843;44.728;10.396;2023-06-22T12:45:19;1077.95;;;416.63;;
59052;SDS011;44843;44.728;10.396;2023-06-22T12:47:46;1081.13;;;417.15;;
59052;SDS011;44843;44.728;10.396;2023-06-22T12:50:11;1123.05;;;427.80;;
59052;SDS011;44843;44.728;10.396;2023-06-22T12:52:37;1149.32;;;432.13;;
59052;SDS011;44843;44.728;10.396;2023-06-22T12:55:06;1141.57;;;427.38;;
59052;SDS011;44843;44.728;10.396;2023-06-22T12:57:31;1188.50;;;445.75;;
59052;SDS011;44843;44.728;10.396;2023-06-22T12:59:57;1174.95;;;437.88;;
59052;SDS011;44843;44.728;10.396;2023-06-22T13:02:23;1182.18;;;446.55;;
59052;SDS011;44843;44.728;10.396;2023-06-22T13:04:49;1183.40;;;446.85;;
59052;SDS011;44843;44.728;10.396;2023-06-22T13:07:14;1189.88;;;475.60;;
59052;SDS011;44843;44.728;10.396;2023-06-22T13:09:39;1087.40;;;447.15;;
59052;SDS011;44843;44.728;10.396;2023-06-22T13:12:05;1086.50;;;441.50;;
59052;SDS011;44843;44.728;10.396;2023-06-22T13:14:31;1072.05;;;439.63;;
59052;SDS011;44843;44.728;10.396;2023-06-22T13:16:56;1077.68;;;437.10;;
59052;SDS011;44843;44.728;10.396;2023-06-22T13:19:21;1130.40;;;438.10;;
59052;SDS011;44843;44.728;10.396;2023-06-22T13:21:47;1125.82;;;426.35;;
59052;SDS011;44843;44.728;10.396;2023-06-22T13:24:12;1149.18;;;441.23;;
59052;SDS011;44843;44.728;10.396;2023-06-22T13:26:37;1175.30;;;460.13;;
59052;SDS011;44843;44.728;10.396;2023-06-22T13:29:03;1160.03;;;450.35;;
59052;SDS011;44843;44.728;10.396;2023-06-22T13:31:28;1185.55;;;458.52;;
59052;SDS011;44843;44.728;10.396;2023-06-22T13:33:53;1191.82;;;464.40;;
59052;SDS011;44843;44.728;10.396;2023-06-22T13:36:19;1190.82;;;459.27;;
59052;SDS011;44843;44.728;10.396;2023-06-22T13:38:44;1145.40;;;454.13;;
59052;SDS011;44843;44.728;10.396;2023-06-22T13:41:10;1179.53;;;455.92;;